sensor_id;sensor_type;location;lat;lon;timestamp;temperature;humidity
27759;DHT22;15148;48.972;12.794;2022-10-31T00:02:12;9.80;99.90
27759;DHT22;15148;48.972;12.794;2022-10-31T00:07:14;9.80;99.90
27759;DHT22;15148;48.972;12.794;2022-10-31T00:12:15;9.80;99.90
27759;DHT22;15148;48.972;12.794;2022-10-31T00:17:17;9.80;99.90
27759;DHT22;15148;48.972;12.794;2022-10-31T00:22:19;9.70;99.90
27759;DHT22;15148;48.972;12.794;2022-10-31T00:27:21;9.60;99.90
27759;DHT22;15148;48.972;12.794;2022-10-31T00:32:23;9.60;99.90
27759;DHT22;15148;48.972;12.794;2022-10-31T00:37:25;9.60;99.90
27759;DHT22;15148;48.972;12.794;2022-10-31T00:42:27;9.60;99.90
27759;DHT22;15148;48.972;12.794;2022-10-31T00:47:31;9.50;99.90
27759;DHT22;15148;48.972;12.794;2022-10-31T00:52:33;9.50;99.90
27759;DHT22;15148;48.972;12.794;2022-10-31T00:57:36;9.50;99.90
27759;DHT22;15148;48.972;12.794;2022-10-31T01:02:39;9.60;99.90
27759;DHT22;15148;48.972;12.794;2022-10-31T01:07:42;9.50;99.90
27759;DHT22;15148;48.972;12.794;2022-10-31T01:12:47;9.50;99.90
27759;DHT22;15148;48.972;12.794;2022-10-31T01:17:49;9.40;99.90
27759;DHT22;15148;48.972;12.794;2022-10-31T01:22:51;9.30;99.90
27759;DHT22;15148;48.972;12.794;2022-10-31T01:27:53;9.30;99.90
27759;DHT22;15148;48.972;12.794;2022-10-31T01:32:55;9.30;99.90
27759;DHT22;15148;48.972;12.794;2022-10-31T01:37:56;9.30;99.90
27759;DHT22;15148;48.972;12.794;2022-10-31T01:42:58;9.30;99.90
27759;DHT22;15148;48.972;12.794;2022-10-31T01:48:01;9.30;99.90
27759;DHT22;15148;48.972;12.794;2022-10-31T01:53:06;9.30;99.90
27759;DHT22;15148;48.972;12.794;2022-10-31T01:58:14;9.30;99.90
27759;DHT22;15148;48.972;12.794;2022-10-31T02:03:24;9.30;99.90
27759;DHT22;15148;48.972;12.794;2022-10-31T02:08:29;9.30;99.90
27759;DHT22;15148;48.972;12.794;2022-10-31T02:13:31;9.30;99.90
27759;DHT22;15148;48.972;12.794;2022-10-31T02:18:35;9.30;99.90
27759;DHT22;15148;48.972;12.794;2022-10-31T02:34:22;9.20;99.90
27759;DHT22;15148;48.972;12.794;2022-10-31T02:39:53;9.20;99.90
27759;DHT22;15148;48.972;12.794;2022-10-31T02:45:07;9.20;99.90
27759;DHT22;15148;48.972;12.794;2022-10-31T02:50:21;9.10;99.90
27759;DHT22;15148;48.972;12.794;2022-10-31T03:01:00;9.00;99.90
27759;DHT22;15148;48.972;12.794;2022-10-31T03:06:09;9.00;99.90
27759;DHT22;15148;48.972;12.794;2022-10-31T03:11:14;9.00;99.90
27759;DHT22;15148;48.972;12.794;2022-10-31T03:16:29;9.00;99.90
27759;DHT22;15148;48.972;12.794;2022-10-31T03:21:36;8.90;99.90
27759;DHT22;15148;48.972;12.794;2022-10-31T03:26:47;8.90;99.90
27759;DHT22;15148;48.972;12.794;2022-10-31T03:32:00;8.90;99.90
27759;DHT22;15148;48.972;12.794;2022-10-31T03:37:06;8.80;99.90
27759;DHT22;15148;48.972;12.794;2022-10-31T03:42:29;8.90;99.90
27759;DHT22;15148;48.972;12.794;2022-10-31T03:47:32;8.80;99.90
27759;DHT22;15148;48.972;12.794;2022-10-31T03:52:42;8.70;99.90
27759;DHT22;15148;48.972;12.794;2022-10-31T03:57:55;8.70;99.90
27759;DHT22;15148;48.972;12.794;2022-10-31T04:03:25;8.70;99.90
27759;DHT22;15148;48.972;12.794;2022-10-31T04:08:31;8.70;99.90
27759;DHT22;15148;48.972;12.794;2022-10-31T04:13:37;8.70;99.90
27759;DHT22;15148;48.972;12.794;2022-10-31T04:18:45;8.70;99.90
27759;DHT22;15148;48.972;12.794;2022-10-31T04:23:47;8.70;99.90
27759;DHT22;15148;48.972;12.794;2022-10-31T04:28:55;8.60;99.90
27759;DHT22;15148;48.972;12.794;2022-10-31T04:33:57;9.80;99.90
27759;DHT22;15148;48.972;12.794;2022-10-31T04:38:59;8.50;99.90
27759;DHT22;15148;48.972;12.794;2022-10-31T04:44:15;8.40;99.90
27759;DHT22;15148;48.972;12.794;2022-10-31T04:49:21;8.50;99.90
27759;DHT22;15148;48.972;12.794;2022-10-31T04:54:23;8.60;99.90
27759;DHT22;15148;48.972;12.794;2022-10-31T04:59:48;8.60;99.90
27759;DHT22;15148;48.972;12.794;2022-10-31T05:04:50;8.50;99.90
27759;DHT22;15148;48.972;12.794;2022-10-31T05:09:53;8.50;99.90
27759;DHT22;15148;48.972;12.794;2022-10-31T05:14:54;8.40;99.90
27759;DHT22;15148;48.972;12.794;2022-10-31T05:20:10;8.30;99.90
27759;DHT22;15148;48.972;12.794;2022-10-31T05:25:37;8.40;99.90
27759;DHT22;15148;48.972;12.794;2022-10-31T05:30:38;8.40;99.90
27759;DHT22;15148;48.972;12.794;2022-10-31T05:35:44;8.30;99.90
27759;DHT22;15148;48.972;12.794;2022-10-31T05:41:09;8.30;99.90
27759;DHT22;15148;48.972;12.794;2022-10-31T05:46:13;8.30;99.90
27759;DHT22;15148;48.972;12.794;2022-10-31T05:51:34;8.30;99.90
27759;DHT22;15148;48.972;12.794;2022-10-31T05:56:38;8.30;99.90
27759;DHT22;15148;48.972;12.794;2022-10-31T06:01:39;8.30;99.90
27759;DHT22;15148;48.972;12.794;2022-10-31T06:06:56;8.30;99.90
27759;DHT22;15148;48.972;12.794;2022-10-31T06:11:59;8.30;99.90
27759;DHT22;15148;48.972;12.794;2022-10-31T06:17:01;8.30;99.90
27759;DHT22;15148;48.972;12.794;2022-10-31T06:22:34;8.30;99.90
27759;DHT22;15148;48.972;12.794;2022-10-31T06:27:36;8.30;99.90
27759;DHT22;15148;48.972;12.794;2022-10-31T06:32:45;8.40;99.90
27759;DHT22;15148;48.972;12.794;2022-10-31T06:37:53;8.40;99.90
27759;DHT22;15148;48.972;12.794;2022-10-31T06:43:11;8.50;99.90
27759;DHT22;15148;48.972;12.794;2022-10-31T06:48:14;8.50;99.90
27759;DHT22;15148;48.972;12.794;2022-10-31T06:53:44;8.60;99.90
27759;DHT22;15148;48.972;12.794;2022-10-31T06:58:48;8.80;99.90
27759;DHT22;15148;48.972;12.794;2022-10-31T07:03:53;8.90;99.90
27759;DHT22;15148;48.972;12.794;2022-10-31T07:08:55;9.10;99.90
27759;DHT22;15148;48.972;12.794;2022-10-31T07:13:58;9.40;99.90
27759;DHT22;15148;48.972;12.794;2022-10-31T07:19:00;9.50;99.90
27759;DHT22;15148;48.972;12.794;2022-10-31T07:24:02;9.60;99.90
27759;DHT22;15148;48.972;12.794;2022-10-31T07:29:16;9.80;99.90
27759;DHT22;15148;48.972;12.794;2022-10-31T07:34:18;10.10;99.90
27759;DHT22;15148;48.972;12.794;2022-10-31T07:39:47;10.40;99.90
27759;DHT22;15148;48.972;12.794;2022-10-31T07:44:50;10.70;99.90
27759;DHT22;15148;48.972;12.794;2022-10-31T07:50:18;11.00;99.90
27759;DHT22;15148;48.972;12.794;2022-10-31T07:55:55;11.10;99.90
27759;DHT22;15148;48.972;12.794;2022-10-31T08:01:02;11.30;99.90
27759;DHT22;15148;48.972;12.794;2022-10-31T08:06:13;11.40;99.90
27759;DHT22;15148;48.972;12.794;2022-10-31T08:11:38;11.60;99.90
27759;DHT22;15148;48.972;12.794;2022-10-31T08:16:41;11.80;99.90
27759;DHT22;15148;48.972;12.794;2022-10-31T08:21:44;12.00;99.90
27759;DHT22;15148;48.972;12.794;2022-10-31T08:26:46;12.20;99.90
27759;DHT22;15148;48.972;12.794;2022-10-31T08:31:48;12.40;99.90
27759;DHT22;15148;48.972;12.794;2022-10-31T08:37:28;12.50;99.90
27759;DHT22;15148;48.972;12.794;2022-10-31T08:42:30;12.70;99.90
27759;DHT22;15148;48.972;12.794;2022-10-31T08:47:32;12.80;99.90
27759;DHT22;15148;48.972;12.794;2022-10-31T08:52:34;13.00;99.90
27759;DHT22;15148;48.972;12.794;2022-10-31T08:57:59;13.10;99.90
27759;DHT22;15148;48.972;12.794;2022-10-31T09:03:13;13.30;99.90
27759;DHT22;15148;48.972;12.794;2022-10-31T09:08:17;13.40;99.90
27759;DHT22;15148;48.972;12.794;2022-10-31T09:13:21;13.60;99.90
27759;DHT22;15148;48.972;12.794;2022-10-31T09:19:03;13.70;99.90
27759;DHT22;15148;48.972;12.794;2022-10-31T09:24:11;13.90;99.90
27759;DHT22;15148;48.972;12.794;2022-10-31T09:29:15;14.10;99.90
27759;DHT22;15148;48.972;12.794;2022-10-31T09:34:18;14.20;99.90
27759;DHT22;15148;48.972;12.794;2022-10-31T09:39:30;14.30;99.90
27759;DHT22;15148;48.972;12.794;2022-10-31T09:50:24;14.40;99.90
27759;DHT22;15148;48.972;12.794;2022-10-31T09:55:38;14.60;99.90
27759;DHT22;15148;48.972;12.794;2022-10-31T10:00:42;14.70;99.90
27759;DHT22;15148;48.972;12.794;2022-10-31T10:06:11;14.90;99.90
27759;DHT22;15148;48.972;12.794;2022-10-31T10:32:58;15.90;99.90
27759;DHT22;15148;48.972;12.794;2022-10-31T10:38:17;16.00;99.90
27759;DHT22;15148;48.972;12.794;2022-10-31T10:48:46;16.40;99.90
27759;DHT22;15148;48.972;12.794;2022-10-31T10:53:58;16.50;99.90
27759;DHT22;15148;48.972;12.794;2022-10-31T10:59:13;16.60;99.90
27759;DHT22;15148;48.972;12.794;2022-10-31T11:04:33;16.80;99.90
27759;DHT22;15148;48.972;12.794;2022-10-31T11:09:36;17.00;99.90
27759;DHT22;15148;48.972;12.794;2022-10-31T11:14:47;17.00;99.90
27759;DHT22;15148;48.972;12.794;2022-10-31T11:20:00;17.00;99.90
27759;DHT22;15148;48.972;12.794;2022-10-31T11:25:23;17.10;99.90
27759;DHT22;15148;48.972;12.794;2022-10-31T11:30:25;17.20;99.90
27759;DHT22;15148;48.972;12.794;2022-10-31T11:35:59;17.30;99.90
27759;DHT22;15148;48.972;12.794;2022-10-31T11:41:11;17.40;99.90
27759;DHT22;15148;48.972;12.794;2022-10-31T11:46:20;17.50;99.90
27759;DHT22;15148;48.972;12.794;2022-10-31T11:51:25;17.70;99.90
27759;DHT22;15148;48.972;12.794;2022-10-31T11:56:41;17.80;99.90
27759;DHT22;15148;48.972;12.794;2022-10-31T12:01:48;17.90;99.90
27759;DHT22;15148;48.972;12.794;2022-10-31T12:06:51;18.00;99.90
27759;DHT22;15148;48.972;12.794;2022-10-31T12:17:17;18.30;99.90
27759;DHT22;15148;48.972;12.794;2022-10-31T12:27:53;18.40;99.90
27759;DHT22;15148;48.972;12.794;2022-10-31T12:39:14;18.10;99.90
27759;DHT22;15148;48.972;12.794;2022-10-31T13:00:46;18.00;99.90
27759;DHT22;15148;48.972;12.794;2022-10-31T13:05:58;17.90;99.90
27759;DHT22;15148;48.972;12.794;2022-10-31T13:11:16;17.80;99.90
27759;DHT22;15148;48.972;12.794;2022-10-31T13:16:22;17.60;99.90
27759;DHT22;15148;48.972;12.794;2022-10-31T13:21:42;17.50;99.90
27759;DHT22;15148;48.972;12.794;2022-10-31T13:26:50;17.50;99.90
27759;DHT22;15148;48.972;12.794;2022-10-31T13:31:53;17.40;99.90
27759;DHT22;15148;48.972;12.794;2022-10-31T13:42:40;17.20;99.90
27759;DHT22;15148;48.972;12.794;2022-10-31T13:47:43;17.10;99.90
27759;DHT22;15148;48.972;12.794;2022-10-31T13:52:45;17.00;99.90
27759;DHT22;15148;48.972;12.794;2022-10-31T13:57:47;16.90;99.90
27759;DHT22;15148;48.972;12.794;2022-10-31T14:02:51;16.80;99.90
27759;DHT22;15148;48.972;12.794;2022-10-31T14:07:54;16.60;99.90
27759;DHT22;15148;48.972;12.794;2022-10-31T14:18:38;16.30;99.90
27759;DHT22;15148;48.972;12.794;2022-10-31T14:23:42;16.20;99.90
27759;DHT22;15148;48.972;12.794;2022-10-31T14:28:49;16.10;99.90
27759;DHT22;15148;48.972;12.794;2022-10-31T14:33:52;15.90;99.90
27759;DHT22;15148;48.972;12.794;2022-10-31T14:39:15;15.90;99.90
27759;DHT22;15148;48.972;12.794;2022-10-31T14:44:57;15.80;99.90
27759;DHT22;15148;48.972;12.794;2022-10-31T14:50:20;15.70;99.90
27759;DHT22;15148;48.972;12.794;2022-10-31T14:55:26;15.60;99.90
27759;DHT22;15148;48.972;12.794;2022-10-31T15:00:32;15.50;99.90
27759;DHT22;15148;48.972;12.794;2022-10-31T15:05:49;15.30;99.90
27759;DHT22;15148;48.972;12.794;2022-10-31T15:10:53;15.20;99.90
27759;DHT22;15148;48.972;12.794;2022-10-31T15:15:59;15.10;99.90
27759;DHT22;15148;48.972;12.794;2022-10-31T15:21:03;15.00;99.90
27759;DHT22;15148;48.972;12.794;2022-10-31T15:26:19;14.80;99.90
27759;DHT22;15148;48.972;12.794;2022-10-31T15:31:26;14.70;99.90
27759;DHT22;15148;48.972;12.794;2022-10-31T15:36:28;14.60;99.90
27759;DHT22;15148;48.972;12.794;2022-10-31T15:41:51;14.50;99.90
27759;DHT22;15148;48.972;12.794;2022-10-31T15:47:17;14.40;99.90
27759;DHT22;15148;48.972;12.794;2022-10-31T15:52:44;14.30;99.90
27759;DHT22;15148;48.972;12.794;2022-10-31T15:57:52;14.20;99.90
27759;DHT22;15148;48.972;12.794;2022-10-31T16:13:36;13.90;99.90
27759;DHT22;15148;48.972;12.794;2022-10-31T16:18:43;13.90;99.90
27759;DHT22;15148;48.972;12.794;2022-10-31T16:23:49;13.80;99.90
27759;DHT22;15148;48.972;12.794;2022-10-31T16:28:59;13.70;99.90
27759;DHT22;15148;48.972;12.794;2022-10-31T16:34:15;13.70;99.90
27759;DHT22;15148;48.972;12.794;2022-10-31T16:39:27;13.60;99.90
27759;DHT22;15148;48.972;12.794;2022-10-31T16:44:29;13.50;99.90
27759;DHT22;15148;48.972;12.794;2022-10-31T16:49:32;13.50;99.90
27759;DHT22;15148;48.972;12.794;2022-10-31T16:54:34;13.40;99.90
27759;DHT22;15148;48.972;12.794;2022-10-31T16:59:38;13.30;99.90
27759;DHT22;15148;48.972;12.794;2022-10-31T17:04:46;13.20;99.90
27759;DHT22;15148;48.972;12.794;2022-10-31T17:09:56;13.10;99.90
27759;DHT22;15148;48.972;12.794;2022-10-31T17:15:02;13.10;99.90
27759;DHT22;15148;48.972;12.794;2022-10-31T17:20:26;13.00;99.90
27759;DHT22;15148;48.972;12.794;2022-10-31T17:25:30;13.00;99.90
27759;DHT22;15148;48.972;12.794;2022-10-31T17:30:36;12.90;99.90
27759;DHT22;15148;48.972;12.794;2022-10-31T17:35:41;12.90;99.90
27759;DHT22;15148;48.972;12.794;2022-10-31T17:40:46;12.70;99.90
27759;DHT22;15148;48.972;12.794;2022-10-31T17:45:51;12.70;99.90
27759;DHT22;15148;48.972;12.794;2022-10-31T17:51:02;12.60;99.90
27759;DHT22;15148;48.972;12.794;2022-10-31T17:56:07;12.60;99.90
27759;DHT22;15148;48.972;12.794;2022-10-31T18:01:13;12.60;99.90
27759;DHT22;15148;48.972;12.794;2022-10-31T18:06:15;12.60;99.90
27759;DHT22;15148;48.972;12.794;2022-10-31T18:11:20;12.50;99.90
27759;DHT22;15148;48.972;12.794;2022-10-31T18:16:23;12.30;99.90
27759;DHT22;15148;48.972;12.794;2022-10-31T18:21:25;12.30;99.90
27759;DHT22;15148;48.972;12.794;2022-10-31T18:26:28;12.20;99.90
27759;DHT22;15148;48.972;12.794;2022-10-31T18:31:30;12.10;99.90
27759;DHT22;15148;48.972;12.794;2022-10-31T18:36:33;12.00;99.90
27759;DHT22;15148;48.972;12.794;2022-10-31T18:41:36;11.90;99.90
27759;DHT22;15148;48.972;12.794;2022-10-31T18:46:41;11.90;99.90
27759;DHT22;15148;48.972;12.794;2022-10-31T18:51:43;11.80;99.90
27759;DHT22;15148;48.972;12.794;2022-10-31T18:56:46;11.70;99.90
27759;DHT22;15148;48.972;12.794;2022-10-31T19:01:48;11.60;99.90
27759;DHT22;15148;48.972;12.794;2022-10-31T19:06:50;11.50;99.90
27759;DHT22;15148;48.972;12.794;2022-10-31T19:11:52;11.50;99.90
27759;DHT22;15148;48.972;12.794;2022-10-31T19:16:54;11.50;99.90
27759;DHT22;15148;48.972;12.794;2022-10-31T19:22:02;11.50;99.90
27759;DHT22;15148;48.972;12.794;2022-10-31T19:27:08;11.40;99.90
27759;DHT22;15148;48.972;12.794;2022-10-31T19:32:11;11.30;99.90
27759;DHT22;15148;48.972;12.794;2022-10-31T19:37:18;11.20;99.90
27759;DHT22;15148;48.972;12.794;2022-10-31T19:42:20;11.10;99.90
27759;DHT22;15148;48.972;12.794;2022-10-31T19:47:25;11.00;99.90
27759;DHT22;15148;48.972;12.794;2022-10-31T19:52:28;11.00;99.90
27759;DHT22;15148;48.972;12.794;2022-10-31T19:57:33;10.90;99.90
27759;DHT22;15148;48.972;12.794;2022-10-31T20:03:05;10.90;99.90
27759;DHT22;15148;48.972;12.794;2022-10-31T20:08:13;10.70;99.90
27759;DHT22;15148;48.972;12.794;2022-10-31T20:13:16;10.60;99.90
27759;DHT22;15148;48.972;12.794;2022-10-31T20:18:18;10.50;99.90
27759;DHT22;15148;48.972;12.794;2022-10-31T20:23:21;10.50;99.90
27759;DHT22;15148;48.972;12.794;2022-10-31T20:28:23;10.50;99.90
27759;DHT22;15148;48.972;12.794;2022-10-31T20:33:26;10.50;99.90
27759;DHT22;15148;48.972;12.794;2022-10-31T20:38:28;10.40;99.90
27759;DHT22;15148;48.972;12.794;2022-10-31T20:43:31;10.40;99.90
27759;DHT22;15148;48.972;12.794;2022-10-31T20:48:33;10.20;99.90
27759;DHT22;15148;48.972;12.794;2022-10-31T20:53:36;10.30;99.90
27759;DHT22;15148;48.972;12.794;2022-10-31T20:58:40;10.20;99.90
27759;DHT22;15148;48.972;12.794;2022-10-31T21:03:42;10.20;99.90
27759;DHT22;15148;48.972;12.794;2022-10-31T21:08:45;10.10;99.90
27759;DHT22;15148;48.972;12.794;2022-10-31T21:13:48;10.10;99.90
27759;DHT22;15148;48.972;12.794;2022-10-31T21:18:52;10.10;99.90
27759;DHT22;15148;48.972;12.794;2022-10-31T21:23:55;10.10;99.90
27759;DHT22;15148;48.972;12.794;2022-10-31T21:29:00;10.00;99.90
27759;DHT22;15148;48.972;12.794;2022-10-31T21:34:04;10.00;99.90
27759;DHT22;15148;48.972;12.794;2022-10-31T21:39:07;10.00;99.90
27759;DHT22;15148;48.972;12.794;2022-10-31T21:44:10;9.90;99.90
27759;DHT22;15148;48.972;12.794;2022-10-31T21:49:12;9.90;99.90
27759;DHT22;15148;48.972;12.794;2022-10-31T21:54:14;9.80;99.90
27759;DHT22;15148;48.972;12.794;2022-10-31T21:59:29;9.80;99.90
27759;DHT22;15148;48.972;12.794;2022-10-31T22:04:32;9.70;99.90
27759;DHT22;15148;48.972;12.794;2022-10-31T22:09:34;9.70;99.90
27759;DHT22;15148;48.972;12.794;2022-10-31T22:14:36;9.70;99.90
27759;DHT22;15148;48.972;12.794;2022-10-31T22:19:38;9.70;99.90
27759;DHT22;15148;48.972;12.794;2022-10-31T22:24:41;9.70;99.90
27759;DHT22;15148;48.972;12.794;2022-10-31T22:29:43;9.60;99.90
27759;DHT22;15148;48.972;12.794;2022-10-31T22:34:45;9.60;99.90
27759;DHT22;15148;48.972;12.794;2022-10-31T22:39:47;9.60;99.90
27759;DHT22;15148;48.972;12.794;2022-10-31T22:44:49;9.50;99.90
27759;DHT22;15148;48.972;12.794;2022-10-31T22:49:52;9.60;99.90
27759;DHT22;15148;48.972;12.794;2022-10-31T22:54:54;9.50;99.90
27759;DHT22;15148;48.972;12.794;2022-10-31T23:00:00;9.50;99.90
27759;DHT22;15148;48.972;12.794;2022-10-31T23:05:06;9.40;99.90
27759;DHT22;15148;48.972;12.794;2022-10-31T23:10:14;9.40;99.90
27759;DHT22;15148;48.972;12.794;2022-10-31T23:15:18;9.40;99.90
27759;DHT22;15148;48.972;12.794;2022-10-31T23:20:24;9.40;99.90
27759;DHT22;15148;48.972;12.794;2022-10-31T23:25:33;9.40;99.90
27759;DHT22;15148;48.972;12.794;2022-10-31T23:30:57;9.40;99.90
27759;DHT22;15148;48.972;12.794;2022-10-31T23:36:00;9.40;99.90
27759;DHT22;15148;48.972;12.794;2022-10-31T23:41:03;9.40;99.90
27759;DHT22;15148;48.972;12.794;2022-10-31T23:46:06;9.30;99.90
27759;DHT22;15148;48.972;12.794;2022-10-31T23:51:11;9.30;99.90
27759;DHT22;15148;48.972;12.794;2022-10-31T23:56:14;9.30;99.90
